sensor_id;sensor_type;location;lat;lon;timestamp;P1;durP1;ratioP1;P2;durP2;ratioP2
45368;SDS011;51342;55.250;37.668;2023-05-16T00:04:10;10.57;;;8.50;;
45368;SDS011;51342;55.250;37.668;2023-05-16T00:06:41;10.60;;;8.03;;
45368;SDS011;51342;55.250;37.668;2023-05-16T00:09:13;14.33;;;8.40;;
45368;SDS011;51342;55.250;37.668;2023-05-16T00:11:44;11.73;;;7.37;;
45368;SDS011;51342;55.250;37.668;2023-05-16T00:14:18;8.83;;;7.93;;
45368;SDS011;51342;55.250;37.668;2023-05-16T00:16:49;8.97;;;7.00;;
45368;SDS011;51342;55.250;37.668;2023-05-16T00:19:20;9.87;;;8.00;;
45368;SDS011;51342;55.250;37.668;2023-05-16T00:21:52;10.63;;;7.50;;
45368;SDS011;51342;55.250;37.668;2023-05-16T00:24:23;12.10;;;8.20;;
45368;SDS011;51342;55.250;37.668;2023-05-16T00:26:55;12.20;;;7.10;;
45368;SDS011;51342;55.250;37.668;2023-05-16T00:29:26;9.97;;;7.63;;
45368;SDS011;51342;55.250;37.668;2023-05-16T00:31:59;10.17;;;8.27;;
45368;SDS011;51342;55.250;37.668;2023-05-16T00:34:31;10.57;;;7.77;;
45368;SDS011;51342;55.250;37.668;2023-05-16T00:37:02;10.17;;;7.80;;
45368;SDS011;51342;55.250;37.668;2023-05-16T00:39:34;10.40;;;7.27;;
45368;SDS011;51342;55.250;37.668;2023-05-16T00:42:06;7.70;;;6.90;;
45368;SDS011;51342;55.250;37.668;2023-05-16T00:44:37;12.07;;;7.50;;
45368;SDS011;51342;55.250;37.668;2023-05-16T00:47:09;10.67;;;8.17;;
45368;SDS011;51342;55.250;37.668;2023-05-16T00:49:40;10.30;;;7.67;;
45368;SDS011;51342;55.250;37.668;2023-05-16T00:52:13;11.93;;;8.03;;
45368;SDS011;51342;55.250;37.668;2023-05-16T00:54:44;11.93;;;8.10;;
45368;SDS011;51342;55.250;37.668;2023-05-16T00:57:17;11.10;;;7.90;;
45368;SDS011;51342;55.250;37.668;2023-05-16T00:59:49;9.40;;;8.33;;
45368;SDS011;51342;55.250;37.668;2023-05-16T01:02:21;11.17;;;7.37;;
45368;SDS011;51342;55.250;37.668;2023-05-16T01:04:53;10.23;;;6.90;;
45368;SDS011;51342;55.250;37.668;2023-05-16T01:07:25;8.97;;;7.10;;
45368;SDS011;51342;55.250;37.668;2023-05-16T01:09:56;9.97;;;6.87;;
45368;SDS011;51342;55.250;37.668;2023-05-16T01:23:32;9.43;;;6.83;;
45368;SDS011;51342;55.250;37.668;2023-05-16T01:28:52;10.77;;;7.27;;
45368;SDS011;51342;55.250;37.668;2023-05-16T01:31:24;9.83;;;7.67;;
45368;SDS011;51342;55.250;37.668;2023-05-16T01:33:56;7.77;;;6.97;;
45368;SDS011;51342;55.250;37.668;2023-05-16T01:47:44;10.37;;;6.63;;
45368;SDS011;51342;55.250;37.668;2023-05-16T01:50:20;10.50;;;6.50;;
45368;SDS011;51342;55.250;37.668;2023-05-16T01:55:45;11.57;;;7.37;;
45368;SDS011;51342;55.250;37.668;2023-05-16T01:58:22;7.50;;;6.33;;
45368;SDS011;51342;55.250;37.668;2023-05-16T02:01:01;9.40;;;7.53;;
45368;SDS011;51342;55.250;37.668;2023-05-16T02:03:34;6.97;;;6.25;;
45368;SDS011;51342;55.250;37.668;2023-05-16T02:06:06;7.73;;;6.80;;
45368;SDS011;51342;55.250;37.668;2023-05-16T02:08:38;11.07;;;6.57;;
45368;SDS011;51342;55.250;37.668;2023-05-16T02:11:09;8.20;;;6.40;;
45368;SDS011;51342;55.250;37.668;2023-05-16T02:13:41;9.30;;;7.47;;
45368;SDS011;51342;55.250;37.668;2023-05-16T02:16:12;8.53;;;6.10;;
45368;SDS011;51342;55.250;37.668;2023-05-16T02:18:43;7.20;;;6.00;;
45368;SDS011;51342;55.250;37.668;2023-05-16T02:21:15;9.53;;;7.20;;
45368;SDS011;51342;55.250;37.668;2023-05-16T02:23:47;7.83;;;5.67;;
45368;SDS011;51342;55.250;37.668;2023-05-16T02:26:18;8.77;;;6.07;;
45368;SDS011;51342;55.250;37.668;2023-05-16T02:28:49;6.30;;;5.57;;
45368;SDS011;51342;55.250;37.668;2023-05-16T02:31:25;8.07;;;6.37;;
45368;SDS011;51342;55.250;37.668;2023-05-16T02:33:57;8.70;;;5.80;;
45368;SDS011;51342;55.250;37.668;2023-05-16T02:36:29;7.30;;;5.70;;
45368;SDS011;51342;55.250;37.668;2023-05-16T02:39:01;7.87;;;6.30;;
45368;SDS011;51342;55.250;37.668;2023-05-16T02:41:33;8.53;;;5.77;;
45368;SDS011;51342;55.250;37.668;2023-05-16T02:44:05;7.47;;;5.73;;
45368;SDS011;51342;55.250;37.668;2023-05-16T02:46:36;7.60;;;5.67;;
45368;SDS011;51342;55.250;37.668;2023-05-16T02:49:09;7.60;;;5.20;;
45368;SDS011;51342;55.250;37.668;2023-05-16T02:51:40;6.53;;;5.23;;
45368;SDS011;51342;55.250;37.668;2023-05-16T02:54:12;8.13;;;5.30;;
45368;SDS011;51342;55.250;37.668;2023-05-16T02:56:43;7.77;;;5.37;;
45368;SDS011;51342;55.250;37.668;2023-05-16T02:59:14;9.13;;;6.10;;
45368;SDS011;51342;55.250;37.668;2023-05-16T03:01:46;8.90;;;5.80;;
45368;SDS011;51342;55.250;37.668;2023-05-16T03:04:18;7.43;;;5.70;;
45368;SDS011;51342;55.250;37.668;2023-05-16T03:06:49;7.43;;;5.80;;
45368;SDS011;51342;55.250;37.668;2023-05-16T03:09:21;9.43;;;5.70;;
45368;SDS011;51342;55.250;37.668;2023-05-16T03:11:52;8.63;;;6.10;;
45368;SDS011;51342;55.250;37.668;2023-05-16T03:14:24;9.17;;;6.43;;
45368;SDS011;51342;55.250;37.668;2023-05-16T03:16:55;8.50;;;6.50;;
45368;SDS011;51342;55.250;37.668;2023-05-16T03:19:27;8.30;;;6.33;;
45368;SDS011;51342;55.250;37.668;2023-05-16T03:21:58;7.83;;;6.23;;
45368;SDS011;51342;55.250;37.668;2023-05-16T03:24:30;7.60;;;6.07;;
45368;SDS011;51342;55.250;37.668;2023-05-16T03:27:01;6.30;;;5.50;;
45368;SDS011;51342;55.250;37.668;2023-05-16T03:29:34;8.20;;;6.17;;
45368;SDS011;51342;55.250;37.668;2023-05-16T03:32:06;8.70;;;5.93;;
45368;SDS011;51342;55.250;37.668;2023-05-16T03:34:37;7.97;;;5.37;;
45368;SDS011;51342;55.250;37.668;2023-05-16T03:37:09;7.67;;;5.57;;
45368;SDS011;51342;55.250;37.668;2023-05-16T03:39:40;6.20;;;4.70;;
45368;SDS011;51342;55.250;37.668;2023-05-16T03:42:12;7.63;;;4.07;;
45368;SDS011;51342;55.250;37.668;2023-05-16T03:44:44;5.78;;;3.25;;
45368;SDS011;51342;55.250;37.668;2023-05-16T03:47:16;7.15;;;3.15;;
45368;SDS011;51342;55.250;37.668;2023-05-16T03:49:48;6.07;;;2.70;;
45368;SDS011;51342;55.250;37.668;2023-05-16T03:52:19;7.25;;;2.97;;
45368;SDS011;51342;55.250;37.668;2023-05-16T03:54:51;3.83;;;2.78;;
45368;SDS011;51342;55.250;37.668;2023-05-16T03:57:22;4.30;;;2.60;;
45368;SDS011;51342;55.250;37.668;2023-05-16T03:59:54;5.60;;;2.67;;
45368;SDS011;51342;55.250;37.668;2023-05-16T04:02:25;4.45;;;2.58;;
45368;SDS011;51342;55.250;37.668;2023-05-16T04:04:57;5.93;;;2.80;;
45368;SDS011;51342;55.250;37.668;2023-05-16T04:07:29;13.65;;;3.35;;
45368;SDS011;51342;55.250;37.668;2023-05-16T04:10:01;3.47;;;2.53;;
45368;SDS011;51342;55.250;37.668;2023-05-16T04:12:34;5.25;;;2.60;;
45368;SDS011;51342;55.250;37.668;2023-05-16T04:15:05;4.57;;;2.35;;
45368;SDS011;51342;55.250;37.668;2023-05-16T04:17:38;3.80;;;2.35;;
45368;SDS011;51342;55.250;37.668;2023-05-16T04:20:11;5.20;;;1.95;;
45368;SDS011;51342;55.250;37.668;2023-05-16T04:22:43;3.63;;;2.20;;
45368;SDS011;51342;55.250;37.668;2023-05-16T04:25:17;5.47;;;2.25;;
45368;SDS011;51342;55.250;37.668;2023-05-16T04:27:50;4.13;;;2.15;;
45368;SDS011;51342;55.250;37.668;2023-05-16T04:30:24;4.75;;;2.00;;
45368;SDS011;51342;55.250;37.668;2023-05-16T04:32:57;5.88;;;1.80;;
45368;SDS011;51342;55.250;37.668;2023-05-16T04:35:30;3.90;;;1.92;;
45368;SDS011;51342;55.250;37.668;2023-05-16T04:38:03;5.07;;;2.45;;
45368;SDS011;51342;55.250;37.668;2023-05-16T04:40:35;3.50;;;2.08;;
45368;SDS011;51342;55.250;37.668;2023-05-16T04:43:07;3.53;;;1.80;;
45368;SDS011;51342;55.250;37.668;2023-05-16T04:45:41;4.55;;;1.95;;
45368;SDS011;51342;55.250;37.668;2023-05-16T04:48:14;7.00;;;1.83;;
45368;SDS011;51342;55.250;37.668;2023-05-16T04:50:48;3.47;;;1.58;;
45368;SDS011;51342;55.250;37.668;2023-05-16T04:53:21;5.97;;;1.58;;
45368;SDS011;51342;55.250;37.668;2023-05-16T04:55:53;4.35;;;1.95;;
45368;SDS011;51342;55.250;37.668;2023-05-16T04:58:26;5.50;;;1.40;;
45368;SDS011;51342;55.250;37.668;2023-05-16T05:01:00;2.70;;;1.33;;
45368;SDS011;51342;55.250;37.668;2023-05-16T05:03:38;3.28;;;1.42;;
45368;SDS011;51342;55.250;37.668;2023-05-16T05:06:12;2.30;;;1.40;;
45368;SDS011;51342;55.250;37.668;2023-05-16T05:08:47;2.67;;;1.50;;
45368;SDS011;51342;55.250;37.668;2023-05-16T05:11:22;5.82;;;1.50;;
45368;SDS011;51342;55.250;37.668;2023-05-16T05:13:59;3.42;;;1.17;;
45368;SDS011;51342;55.250;37.668;2023-05-16T05:16:33;3.28;;;1.45;;
45368;SDS011;51342;55.250;37.668;2023-05-16T05:19:07;2.90;;;1.00;;
45368;SDS011;51342;55.250;37.668;2023-05-16T05:21:40;3.10;;;1.40;;
45368;SDS011;51342;55.250;37.668;2023-05-16T05:24:14;2.28;;;1.10;;
45368;SDS011;51342;55.250;37.668;2023-05-16T05:26:48;3.72;;;1.10;;
45368;SDS011;51342;55.250;37.668;2023-05-16T05:29:20;3.17;;;1.25;;
45368;SDS011;51342;55.250;37.668;2023-05-16T05:31:54;1.67;;;1.02;;
45368;SDS011;51342;55.250;37.668;2023-05-16T05:34:30;2.97;;;1.17;;
45368;SDS011;51342;55.250;37.668;2023-05-16T05:37:05;6.20;;;1.45;;
45368;SDS011;51342;55.250;37.668;2023-05-16T05:39:40;3.88;;;1.20;;
45368;SDS011;51342;55.250;37.668;2023-05-16T05:42:14;2.45;;;1.33;;
45368;SDS011;51342;55.250;37.668;2023-05-16T05:44:49;2.58;;;1.00;;
45368;SDS011;51342;55.250;37.668;2023-05-16T05:47:26;1.95;;;1.00;;
45368;SDS011;51342;55.250;37.668;2023-05-16T05:50:01;2.92;;;1.33;;
45368;SDS011;51342;55.250;37.668;2023-05-16T05:52:39;2.13;;;0.98;;
45368;SDS011;51342;55.250;37.668;2023-05-16T05:55:16;2.47;;;1.05;;
45368;SDS011;51342;55.250;37.668;2023-05-16T05:57:51;2.72;;;0.93;;
45368;SDS011;51342;55.250;37.668;2023-05-16T06:00:25;1.73;;;0.80;;
45368;SDS011;51342;55.250;37.668;2023-05-16T06:02:58;2.15;;;1.00;;
45368;SDS011;51342;55.250;37.668;2023-05-16T06:05:34;1.42;;;0.82;;
45368;SDS011;51342;55.250;37.668;2023-05-16T06:08:13;2.13;;;1.02;;
45368;SDS011;51342;55.250;37.668;2023-05-16T06:10:47;1.60;;;1.10;;
45368;SDS011;51342;55.250;37.668;2023-05-16T06:13:21;1.70;;;0.80;;
45368;SDS011;51342;55.250;37.668;2023-05-16T06:15:58;1.33;;;0.80;;
45368;SDS011;51342;55.250;37.668;2023-05-16T06:18:32;1.40;;;1.20;;
45368;SDS011;51342;55.250;37.668;2023-05-16T06:21:09;1.30;;;0.93;;
45368;SDS011;51342;55.250;37.668;2023-05-16T06:23:46;4.22;;;1.20;;
45368;SDS011;51342;55.250;37.668;2023-05-16T06:26:21;3.25;;;1.02;;
45368;SDS011;51342;55.250;37.668;2023-05-16T06:29:00;4.15;;;0.90;;
45368;SDS011;51342;55.250;37.668;2023-05-16T06:31:36;1.77;;;0.80;;
45368;SDS011;51342;55.250;37.668;2023-05-16T06:34:11;3.65;;;1.00;;
45368;SDS011;51342;55.250;37.668;2023-05-16T06:36:45;3.00;;;1.00;;
45368;SDS011;51342;55.250;37.668;2023-05-16T06:39:22;2.85;;;0.90;;
45368;SDS011;51342;55.250;37.668;2023-05-16T06:41:56;1.60;;;1.10;;
45368;SDS011;51342;55.250;37.668;2023-05-16T06:44:33;2.63;;;0.93;;
45368;SDS011;51342;55.250;37.668;2023-05-16T06:47:09;1.83;;;1.17;;
45368;SDS011;51342;55.250;37.668;2023-05-16T06:49:46;2.10;;;0.80;;
45368;SDS011;51342;55.250;37.668;2023-05-16T06:52:21;1.85;;;0.80;;
45368;SDS011;51342;55.250;37.668;2023-05-16T06:54:55;1.55;;;0.85;;
45368;SDS011;51342;55.250;37.668;2023-05-16T06:57:30;2.65;;;0.73;;
45368;SDS011;51342;55.250;37.668;2023-05-16T07:00:04;2.85;;;0.90;;
45368;SDS011;51342;55.250;37.668;2023-05-16T07:02:41;2.25;;;0.88;;
45368;SDS011;51342;55.250;37.668;2023-05-16T07:05:21;1.58;;;0.70;;
45368;SDS011;51342;55.250;37.668;2023-05-16T07:07:59;1.92;;;0.85;;
45368;SDS011;51342;55.250;37.668;2023-05-16T07:10:32;3.08;;;0.80;;
45368;SDS011;51342;55.250;37.668;2023-05-16T07:13:11;1.30;;;0.95;;
45368;SDS011;51342;55.250;37.668;2023-05-16T07:15:47;1.92;;;0.80;;
45368;SDS011;51342;55.250;37.668;2023-05-16T07:18:22;1.95;;;0.75;;
45368;SDS011;51342;55.250;37.668;2023-05-16T07:20:56;1.20;;;0.50;;
45368;SDS011;51342;55.250;37.668;2023-05-16T07:23:31;0.98;;;0.80;;
45368;SDS011;51342;55.250;37.668;2023-05-16T07:26:08;2.65;;;0.80;;
45368;SDS011;51342;55.250;37.668;2023-05-16T07:28:51;2.92;;;1.20;;
45368;SDS011;51342;55.250;37.668;2023-05-16T07:31:31;1.30;;;0.80;;
45368;SDS011;51342;55.250;37.668;2023-05-16T07:34:05;0.75;;;0.68;;
45368;SDS011;51342;55.250;37.668;2023-05-16T07:36:46;4.18;;;0.90;;
45368;SDS011;51342;55.250;37.668;2023-05-16T07:39:24;0.75;;;0.63;;
45368;SDS011;51342;55.250;37.668;2023-05-16T07:42:05;1.30;;;0.70;;
45368;SDS011;51342;55.250;37.668;2023-05-16T07:44:40;3.15;;;0.68;;
45368;SDS011;51342;55.250;37.668;2023-05-16T07:47:13;0.80;;;0.60;;
45368;SDS011;51342;55.250;37.668;2023-05-16T07:52:27;1.33;;;0.60;;
45368;SDS011;51342;55.250;37.668;2023-05-16T07:55:04;0.90;;;0.50;;
45368;SDS011;51342;55.250;37.668;2023-05-16T07:57:41;0.93;;;0.68;;
45368;SDS011;51342;55.250;37.668;2023-05-16T08:00:16;1.58;;;0.68;;
45368;SDS011;51342;55.250;37.668;2023-05-16T08:02:56;0.85;;;0.40;;
45368;SDS011;51342;55.250;37.668;2023-05-16T08:05:34;1.65;;;0.65;;
45368;SDS011;51342;55.250;37.668;2023-05-16T08:08:10;3.03;;;0.68;;
45368;SDS011;51342;55.250;37.668;2023-05-16T08:10:48;3.65;;;0.80;;
45368;SDS011;51342;55.250;37.668;2023-05-16T08:13:24;2.08;;;0.50;;
45368;SDS011;51342;55.250;37.668;2023-05-16T08:15:59;1.10;;;0.68;;
45368;SDS011;51342;55.250;37.668;2023-05-16T08:18:41;2.55;;;0.52;;
45368;SDS011;51342;55.250;37.668;2023-05-16T08:21:17;1.67;;;0.60;;
45368;SDS011;51342;55.250;37.668;2023-05-16T08:23:56;0.55;;;0.40;;
45368;SDS011;51342;55.250;37.668;2023-05-16T08:26:32;1.83;;;0.50;;
45368;SDS011;51342;55.250;37.668;2023-05-16T08:29:10;2.03;;;0.57;;
45368;SDS011;51342;55.250;37.668;2023-05-16T08:31:44;2.80;;;0.57;;
45368;SDS011;51342;55.250;37.668;2023-05-16T08:34:23;2.10;;;0.50;;
45368;SDS011;51342;55.250;37.668;2023-05-16T08:37:02;0.98;;;0.50;;
45368;SDS011;51342;55.250;37.668;2023-05-16T08:39:40;2.25;;;0.50;;
45368;SDS011;51342;55.250;37.668;2023-05-16T08:42:18;2.20;;;0.43;;
45368;SDS011;51342;55.250;37.668;2023-05-16T08:44:57;2.10;;;0.50;;
45368;SDS011;51342;55.250;37.668;2023-05-16T08:47:39;1.75;;;0.65;;
45368;SDS011;51342;55.250;37.668;2023-05-16T08:50:20;1.30;;;0.60;;
45368;SDS011;51342;55.250;37.668;2023-05-16T08:52:55;1.52;;;0.40;;
45368;SDS011;51342;55.250;37.668;2023-05-16T08:55:29;1.73;;;0.60;;
45368;SDS011;51342;55.250;37.668;2023-05-16T08:58:05;2.53;;;0.60;;
45368;SDS011;51342;55.250;37.668;2023-05-16T09:00:41;4.60;;;0.57;;
45368;SDS011;51342;55.250;37.668;2023-05-16T09:03:16;1.63;;;0.45;;
45368;SDS011;51342;55.250;37.668;2023-05-16T09:05:54;1.10;;;0.45;;
45368;SDS011;51342;55.250;37.668;2023-05-16T09:08:53;0.98;;;0.30;;
45368;SDS011;51342;55.250;37.668;2023-05-16T09:11:27;3.13;;;0.60;;
45368;SDS011;51342;55.250;37.668;2023-05-16T09:14:05;3.55;;;0.50;;
45368;SDS011;51342;55.250;37.668;2023-05-16T09:16:44;0.87;;;0.67;;
45368;SDS011;51342;55.250;37.668;2023-05-16T09:19:41;1.10;;;0.50;;
45368;SDS011;51342;55.250;37.668;2023-05-16T09:22:22;1.52;;;0.45;;
45368;SDS011;51342;55.250;37.668;2023-05-16T09:25:01;1.00;;;0.45;;
45368;SDS011;51342;55.250;37.668;2023-05-16T09:27:38;1.60;;;0.70;;
45368;SDS011;51342;55.250;37.668;2023-05-16T09:30:15;0.70;;;0.40;;
45368;SDS011;51342;55.250;37.668;2023-05-16T09:32:55;1.38;;;0.40;;
45368;SDS011;51342;55.250;37.668;2023-05-16T09:35:35;5.47;;;0.43;;
45368;SDS011;51342;55.250;37.668;2023-05-16T09:38:15;3.55;;;0.70;;
45368;SDS011;51342;55.250;37.668;2023-05-16T09:40:52;2.20;;;0.40;;
45368;SDS011;51342;55.250;37.668;2023-05-16T09:43:32;1.67;;;0.52;;
45368;SDS011;51342;55.250;37.668;2023-05-16T09:46:13;3.00;;;0.60;;
45368;SDS011;51342;55.250;37.668;2023-05-16T09:48:54;2.95;;;0.50;;
45368;SDS011;51342;55.250;37.668;2023-05-16T09:51:31;0.98;;;0.57;;
45368;SDS011;51342;55.250;37.668;2023-05-16T09:54:08;1.52;;;0.63;;
45368;SDS011;51342;55.250;37.668;2023-05-16T09:56:50;2.55;;;0.50;;
45368;SDS011;51342;55.250;37.668;2023-05-16T09:59:45;2.72;;;0.50;;
45368;SDS011;51342;55.250;37.668;2023-05-16T10:02:19;1.17;;;0.60;;
45368;SDS011;51342;55.250;37.668;2023-05-16T10:04:53;2.05;;;0.90;;
45368;SDS011;51342;55.250;37.668;2023-05-16T10:07:29;1.92;;;0.68;;
45368;SDS011;51342;55.250;37.668;2023-05-16T10:10:07;1.58;;;0.50;;
45368;SDS011;51342;55.250;37.668;2023-05-16T10:12:44;1.42;;;0.50;;
45368;SDS011;51342;55.250;37.668;2023-05-16T10:15:23;2.95;;;0.60;;
45368;SDS011;51342;55.250;37.668;2023-05-16T10:18:01;0.70;;;0.50;;
45368;SDS011;51342;55.250;37.668;2023-05-16T10:20:46;1.75;;;0.63;;
45368;SDS011;51342;55.250;37.668;2023-05-16T10:23:21;2.13;;;0.65;;
45368;SDS011;51342;55.250;37.668;2023-05-16T10:25:59;1.20;;;0.60;;
45368;SDS011;51342;55.250;37.668;2023-05-16T10:28:42;1.65;;;0.65;;
45368;SDS011;51342;55.250;37.668;2023-05-16T10:31:23;1.75;;;0.70;;
45368;SDS011;51342;55.250;37.668;2023-05-16T10:34:00;1.98;;;0.70;;
45368;SDS011;51342;55.250;37.668;2023-05-16T10:36:38;1.20;;;0.40;;
45368;SDS011;51342;55.250;37.668;2023-05-16T10:39:12;1.10;;;0.50;;
45368;SDS011;51342;55.250;37.668;2023-05-16T10:41:51;1.33;;;0.73;;
45368;SDS011;51342;55.250;37.668;2023-05-16T10:44:31;2.40;;;0.70;;
45368;SDS011;51342;55.250;37.668;2023-05-16T10:47:09;2.42;;;0.60;;
45368;SDS011;51342;55.250;37.668;2023-05-16T10:49:55;5.45;;;0.95;;
45368;SDS011;51342;55.250;37.668;2023-05-16T10:52:33;2.38;;;0.70;;
45368;SDS011;51342;55.250;37.668;2023-05-16T10:55:09;2.80;;;0.80;;
45368;SDS011;51342;55.250;37.668;2023-05-16T10:57:43;2.42;;;0.73;;
45368;SDS011;51342;55.250;37.668;2023-05-16T11:00:20;1.00;;;0.60;;
45368;SDS011;51342;55.250;37.668;2023-05-16T11:03:06;1.38;;;0.68;;
45368;SDS011;51342;55.250;37.668;2023-05-16T11:05:58;2.15;;;0.82;;
45368;SDS011;51342;55.250;37.668;2023-05-16T11:08:56;1.60;;;0.70;;
45368;SDS011;51342;55.250;37.668;2023-05-16T11:14:38;3.00;;;0.80;;
45368;SDS011;51342;55.250;37.668;2023-05-16T11:17:22;2.83;;;0.70;;
45368;SDS011;51342;55.250;37.668;2023-05-16T11:19:59;1.60;;;0.70;;
45368;SDS011;51342;55.250;37.668;2023-05-16T11:22:40;0.70;;;0.50;;
45368;SDS011;51342;55.250;37.668;2023-05-16T11:25:15;1.77;;;0.77;;
45368;SDS011;51342;55.250;37.668;2023-05-16T11:27:49;5.07;;;0.95;;
45368;SDS011;51342;55.250;37.668;2023-05-16T11:30:22;2.05;;;0.70;;
45368;SDS011;51342;55.250;37.668;2023-05-16T11:33:02;3.60;;;0.90;;
45368;SDS011;51342;55.250;37.668;2023-05-16T11:35:39;1.33;;;0.70;;
45368;SDS011;51342;55.250;37.668;2023-05-16T11:38:20;1.65;;;0.70;;
45368;SDS011;51342;55.250;37.668;2023-05-16T11:41:08;1.30;;;0.70;;
45368;SDS011;51342;55.250;37.668;2023-05-16T11:43:49;0.75;;;0.60;;
45368;SDS011;51342;55.250;37.668;2023-05-16T11:46:27;2.00;;;0.80;;
45368;SDS011;51342;55.250;37.668;2023-05-16T11:49:03;1.42;;;0.75;;
45368;SDS011;51342;55.250;37.668;2023-05-16T11:51:43;2.25;;;0.80;;
45368;SDS011;51342;55.250;37.668;2023-05-16T11:54:19;2.70;;;1.00;;
45368;SDS011;51342;55.250;37.668;2023-05-16T11:56:54;2.53;;;0.90;;
45368;SDS011;51342;55.250;37.668;2023-05-16T11:59:31;4.50;;;0.80;;
45368;SDS011;51342;55.250;37.668;2023-05-16T12:02:08;1.75;;;0.82;;
45368;SDS011;51342;55.250;37.668;2023-05-16T12:04:45;3.08;;;1.17;;
45368;SDS011;51342;55.250;37.668;2023-05-16T12:07:28;2.30;;;0.98;;
45368;SDS011;51342;55.250;37.668;2023-05-16T12:10:04;2.53;;;0.80;;
45368;SDS011;51342;55.250;37.668;2023-05-16T12:12:43;3.17;;;0.90;;
45368;SDS011;51342;55.250;37.668;2023-05-16T12:15:22;2.30;;;0.80;;
45368;SDS011;51342;55.250;37.668;2023-05-16T12:17:57;3.03;;;0.60;;
45368;SDS011;51342;55.250;37.668;2023-05-16T12:20:33;1.75;;;0.80;;
45368;SDS011;51342;55.250;37.668;2023-05-16T12:23:12;2.92;;;0.95;;
45368;SDS011;51342;55.250;37.668;2023-05-16T12:25:47;3.10;;;0.95;;
45368;SDS011;51342;55.250;37.668;2023-05-16T12:28:24;4.78;;;0.80;;
45368;SDS011;51342;55.250;37.668;2023-05-16T12:31:19;2.47;;;0.90;;
45368;SDS011;51342;55.250;37.668;2023-05-16T12:34:00;1.75;;;0.70;;
45368;SDS011;51342;55.250;37.668;2023-05-16T12:36:36;4.05;;;0.98;;
45368;SDS011;51342;55.250;37.668;2023-05-16T12:39:16;2.85;;;0.85;;
45368;SDS011;51342;55.250;37.668;2023-05-16T12:41:54;1.75;;;1.10;;
45368;SDS011;51342;55.250;37.668;2023-05-16T12:44:43;2.28;;;0.95;;
45368;SDS011;51342;55.250;37.668;2023-05-16T12:47:20;2.42;;;1.00;;
45368;SDS011;51342;55.250;37.668;2023-05-16T12:50:00;1.17;;;0.80;;
45368;SDS011;51342;55.250;37.668;2023-05-16T12:52:47;2.78;;;1.05;;
45368;SDS011;51342;55.250;37.668;2023-05-16T12:55:23;1.80;;;0.80;;
45368;SDS011;51342;55.250;37.668;2023-05-16T12:57:59;1.67;;;0.70;;
45368;SDS011;51342;55.250;37.668;2023-05-16T13:00:35;1.70;;;0.82;;
45368;SDS011;51342;55.250;37.668;2023-05-16T13:03:14;1.77;;;0.80;;
45368;SDS011;51342;55.250;37.668;2023-05-16T13:05:53;2.45;;;0.75;;
45368;SDS011;51342;55.250;37.668;2023-05-16T13:08:30;2.95;;;0.85;;
45368;SDS011;51342;55.250;37.668;2023-05-16T13:11:09;1.98;;;0.75;;
45368;SDS011;51342;55.250;37.668;2023-05-16T13:13:45;1.92;;;0.82;;
45368;SDS011;51342;55.250;37.668;2023-05-16T13:16:24;1.63;;;0.88;;
45368;SDS011;51342;55.250;37.668;2023-05-16T13:18:59;2.35;;;0.98;;
45368;SDS011;51342;55.250;37.668;2023-05-16T13:21:37;1.58;;;0.95;;
45368;SDS011;51342;55.250;37.668;2023-05-16T13:24:11;3.67;;;0.90;;
45368;SDS011;51342;55.250;37.668;2023-05-16T13:26:47;2.08;;;1.00;;
45368;SDS011;51342;55.250;37.668;2023-05-16T13:29:24;1.98;;;1.00;;
45368;SDS011;51342;55.250;37.668;2023-05-16T13:32:03;2.60;;;0.82;;
45368;SDS011;51342;55.250;37.668;2023-05-16T13:34:43;2.05;;;0.80;;
45368;SDS011;51342;55.250;37.668;2023-05-16T13:37:24;2.63;;;0.93;;
45368;SDS011;51342;55.250;37.668;2023-05-16T13:40:00;2.10;;;0.95;;
45368;SDS011;51342;55.250;37.668;2023-05-16T13:42:36;3.28;;;0.95;;
45368;SDS011;51342;55.250;37.668;2023-05-16T13:45:12;3.10;;;0.60;;
45368;SDS011;51342;55.250;37.668;2023-05-16T13:47:49;2.10;;;0.68;;
45368;SDS011;51342;55.250;37.668;2023-05-16T13:50:24;4.85;;;0.90;;
45368;SDS011;51342;55.250;37.668;2023-05-16T13:53:00;2.28;;;1.13;;
45368;SDS011;51342;55.250;37.668;2023-05-16T13:55:40;2.03;;;0.85;;
45368;SDS011;51342;55.250;37.668;2023-05-16T13:58:19;2.05;;;0.93;;
45368;SDS011;51342;55.250;37.668;2023-05-16T14:00:55;4.10;;;1.27;;
45368;SDS011;51342;55.250;37.668;2023-05-16T14:03:35;4.55;;;0.95;;
45368;SDS011;51342;55.250;37.668;2023-05-16T14:06:12;4.68;;;1.38;;
45368;SDS011;51342;55.250;37.668;2023-05-16T14:08:47;3.28;;;0.80;;
45368;SDS011;51342;55.250;37.668;2023-05-16T14:11:24;1.88;;;0.73;;
45368;SDS011;51342;55.250;37.668;2023-05-16T14:14:02;3.63;;;1.20;;
45368;SDS011;51342;55.250;37.668;2023-05-16T14:16:37;1.85;;;0.75;;
45368;SDS011;51342;55.250;37.668;2023-05-16T14:19:18;3.60;;;1.00;;
45368;SDS011;51342;55.250;37.668;2023-05-16T14:21:56;1.40;;;0.80;;
45368;SDS011;51342;55.250;37.668;2023-05-16T14:24:31;1.92;;;0.80;;
45368;SDS011;51342;55.250;37.668;2023-05-16T14:27:08;2.78;;;0.93;;
45368;SDS011;51342;55.250;37.668;2023-05-16T14:29:45;3.97;;;1.20;;
45368;SDS011;51342;55.250;37.668;2023-05-16T14:32:21;3.72;;;0.98;;
45368;SDS011;51342;55.250;37.668;2023-05-16T14:34:57;1.30;;;0.80;;
45368;SDS011;51342;55.250;37.668;2023-05-16T14:37:38;2.50;;;0.82;;
45368;SDS011;51342;55.250;37.668;2023-05-16T14:40:17;3.00;;;0.98;;
45368;SDS011;51342;55.250;37.668;2023-05-16T14:42:56;7.00;;;1.05;;
45368;SDS011;51342;55.250;37.668;2023-05-16T14:45:32;1.92;;;0.95;;
45368;SDS011;51342;55.250;37.668;2023-05-16T14:48:12;3.20;;;0.90;;
45368;SDS011;51342;55.250;37.668;2023-05-16T14:50:49;2.67;;;1.33;;
45368;SDS011;51342;55.250;37.668;2023-05-16T14:53:24;2.95;;;1.20;;
45368;SDS011;51342;55.250;37.668;2023-05-16T14:56:00;2.17;;;0.95;;
45368;SDS011;51342;55.250;37.668;2023-05-16T14:58:35;2.03;;;0.95;;
45368;SDS011;51342;55.250;37.668;2023-05-16T15:01:13;2.40;;;0.90;;
45368;SDS011;51342;55.250;37.668;2023-05-16T15:03:46;3.85;;;1.23;;
45368;SDS011;51342;55.250;37.668;2023-05-16T15:06:19;3.40;;;0.90;;
45368;SDS011;51342;55.250;37.668;2023-05-16T15:08:53;3.63;;;1.17;;
45368;SDS011;51342;55.250;37.668;2023-05-16T15:11:30;2.60;;;1.30;;
45368;SDS011;51342;55.250;37.668;2023-05-16T15:14:06;3.20;;;0.90;;
45368;SDS011;51342;55.250;37.668;2023-05-16T15:16:41;1.50;;;0.90;;
45368;SDS011;51342;55.250;37.668;2023-05-16T15:19:17;3.15;;;1.00;;
45368;SDS011;51342;55.250;37.668;2023-05-16T15:21:56;2.40;;;1.10;;
45368;SDS011;51342;55.250;37.668;2023-05-16T15:24:35;2.50;;;0.90;;
45368;SDS011;51342;55.250;37.668;2023-05-16T15:27:14;2.22;;;1.05;;
45368;SDS011;51342;55.250;37.668;2023-05-16T15:29:49;2.13;;;1.02;;
45368;SDS011;51342;55.250;37.668;2023-05-16T15:32:24;3.85;;;1.20;;
45368;SDS011;51342;55.250;37.668;2023-05-16T15:35:03;1.83;;;1.15;;
45368;SDS011;51342;55.250;37.668;2023-05-16T15:42:54;1.55;;;1.25;;
45368;SDS011;51342;55.250;37.668;2023-05-16T15:45:29;3.65;;;2.28;;
45368;SDS011;51342;55.250;37.668;2023-05-16T15:48:05;3.28;;;1.98;;
45368;SDS011;51342;55.250;37.668;2023-05-16T15:50:41;5.45;;;1.55;;
45368;SDS011;51342;55.250;37.668;2023-05-16T15:53:20;1.52;;;1.30;;
45368;SDS011;51342;55.250;37.668;2023-05-16T15:55:56;1.77;;;1.40;;
45368;SDS011;51342;55.250;37.668;2023-05-16T15:58:34;2.22;;;1.20;;
45368;SDS011;51342;55.250;37.668;2023-05-16T16:01:08;2.90;;;1.35;;
45368;SDS011;51342;55.250;37.668;2023-05-16T16:03:47;2.35;;;1.10;;
45368;SDS011;51342;55.250;37.668;2023-05-16T16:06:24;1.42;;;1.00;;